| time (UTC) | temp F | wind direction | speed MPH | gust MPH | rain 1hr in | rain 24hr in | rain mn in | humidity % | barometer mb |
| 20260506083937 | 75 | 183 | 7.0 | 11.0 | 0.00 | 0.00 | 0.00 | 45 | 1012.9 |
| 20260506083438 | 75 | 178 | 7.0 | 12.0 | 0.00 | 0.00 | 0.00 | 44 | 1012.9 |
| 20260506082937 | 75 | 180 | 6.0 | 12.0 | 0.00 | 0.00 | 0.00 | 46 | 1012.9 |
| 20260506082438 | 75 | 182 | 7.0 | 9.0 | 0.00 | 0.00 | 0.00 | 47 | 1013.0 |
| 20260506081938 | 74 | 182 | 7.0 | 11.0 | 0.00 | 0.00 | 0.00 | 46 | 1012.7 |
| 20260506081438 | 74 | 179 | 7.0 | 11.0 | 0.00 | 0.00 | 0.00 | 46 | 1012.7 |
| 20260506080937 | 74 | 179 | 7.0 | 10.0 | 0.00 | 0.00 | 0.00 | 46 | 1012.7 |
| 20260506080440 | 74 | 176 | 5.0 | 11.0 | 0.00 | 0.00 | 0.00 | 46 | 1012.8 |
| 20260506073439 | 72 | 183 | 8.0 | 10.0 | 0.00 | 0.00 | 0.00 | 50 | 1013.0 |
| 20260506072938 | 72 | 183 | 8.0 | 10.0 | 0.00 | 0.00 | 0.00 | 50 | 1013.3 |
| 20260506072440 | 71 | 185 | 8.0 | 12.0 | 0.00 | 0.00 | 0.00 | 52 | 1013.3 |
| 20260506071937 | 71 | 177 | 7.0 | 12.0 | 0.00 | 0.00 | 0.00 | 54 | 1013.2 |
| 20260506071439 | 70 | 185 | 7.0 | 11.0 | 0.00 | 0.00 | 0.00 | 54 | 1013.1 |
| 20260506070937 | 69 | 183 | 8.0 | 11.0 | 0.00 | 0.00 | 0.00 | 54 | 1013.0 |
| 20260506070438 | 69 | 184 | 8.0 | 11.0 | 0.00 | 0.00 | 0.00 | 56 | 1013.3 |
| 20260506062441 | 64 | 183 | 7.0 | 8.0 | 0.00 | 0.00 | 0.00 | 64 | 1013.4 |
| 20260506061938 | 63 | 183 | 7.0 | 8.0 | 0.00 | 0.00 | 0.00 | 65 | 1013.3 |
| 20260506061437 | 63 | 182 | 7.0 | 8.0 | 0.00 | 0.00 | 0.00 | 67 | 1013.4 |
| 20260506060938 | 62 | 182 | 7.0 | 8.0 | 0.00 | 0.00 | 0.00 | 68 | 1013.4 |
| 20260506060436 | 62 | 185 | 7.0 | 8.0 | 0.00 | 0.00 | 0.00 | 69 | 1013.2 |
| 20260506050938 | 59 | 186 | 7.0 | 8.0 | 0.00 | 0.00 | 0.00 | 73 | 1013.1 |
| 20260506050439 | 59 | 185 | 7.0 | 8.0 | 0.00 | 0.00 | 0.00 | 73 | 1013.3 |
| 20260506044939 | 59 | 183 | 7.0 | 8.0 | 0.00 | 0.00 | 0.00 | 74 | 1013.2 |
| 20260506044437 | 58 | 184 | 7.0 | 8.0 | 0.00 | 0.00 | 0.00 | 74 | 1013.1 |
| 20260506043939 | 58 | 183 | 7.0 | 8.0 | 0.00 | 0.00 | 0.00 | 75 | 1013.2 |
| 20260506043438 | 58 | 185 | 7.0 | 8.0 | 0.00 | 0.00 | 0.00 | 75 | 1013.1 |
| 20260506042938 | 58 | 184 | 7.0 | 8.0 | 0.00 | 0.00 | 0.00 | 75 | 1013.1 |
| 20260506042439 | 58 | 185 | 7.0 | 8.0 | 0.00 | 0.00 | 0.00 | 76 | 1013.0 |
| 20260506041938 | 58 | 185 | 7.0 | 8.0 | 0.00 | 0.00 | 0.00 | 75 | 1012.9 |
| 20260506041437 | 57 | 185 | 7.0 | 8.0 | 0.00 | 0.00 | 0.00 | 75 | 1012.9 |
| 20260506040938 | 57 | 185 | 7.0 | 8.0 | 0.00 | 0.00 | 0.00 | 76 | 1012.9 |
| 20260506040437 | 57 | 184 | 7.0 | 8.0 | 0.00 | 0.00 | 0.00 | 76 | 1013.1 |
| 20260506035939 | 57 | 186 | 7.0 | 8.0 | 0.00 | 0.00 | 0.00 | 76 | 1012.8 |
| 20260506035438 | 57 | 183 | 7.0 | 8.0 | 0.00 | 0.00 | 0.00 | 76 | 1012.8 |
| 20260506034939 | 56 | 185 | 7.0 | 8.0 | 0.00 | 0.00 | 0.00 | 76 | 1012.7 |
| 20260506034439 | 56 | 182 | 7.0 | 8.0 | 0.00 | 0.00 | 0.00 | 76 | 1013.0 |
| 20260506033938 | 56 | 184 | 7.0 | 8.0 | 0.00 | 0.00 | 0.00 | 76 | 1012.9 |
| 20260506033437 | 56 | 185 | 8.0 | 8.0 | 0.00 | 0.00 | 0.00 | 76 | 1012.9 |
| 20260506032939 | 56 | 184 | 7.0 | 8.0 | 0.00 | 0.00 | 0.00 | 76 | 1012.9 |
| 20260506032437 | 56 | 184 | 7.0 | 8.0 | 0.00 | 0.00 | 0.00 | 77 | 1013.1 |
| 20260506031939 | 56 | 183 | 7.0 | 8.0 | 0.00 | 0.00 | 0.00 | 77 | 1012.8 |
| 20260506031437 | 56 | 184 | 7.0 | 8.0 | 0.00 | 0.00 | 0.00 | 76 | 1012.8 |
| 20260506030939 | 56 | 184 | 8.0 | 8.0 | 0.00 | 0.00 | 0.00 | 76 | 1012.9 |
| 20260506030438 | 56 | 184 | 7.0 | 8.0 | 0.00 | 0.00 | 0.00 | 76 | 1012.6 |
| 20260506025939 | 56 | 184 | 7.0 | 8.0 | 0.00 | 0.00 | 0.00 | 75 | 1012.8 |
| 20260506025438 | 56 | 185 | 7.0 | 8.0 | 0.00 | 0.00 | 0.00 | 75 | 1012.9 |
| 20260506024938 | 56 | 185 | 7.0 | 8.0 | 0.00 | 0.00 | 0.00 | 74 | 1012.7 |
| 20260506024438 | 56 | 183 | 7.0 | 8.0 | 0.00 | 0.00 | 0.00 | 74 | 1012.8 |
| 20260506023940 | 56 | 185 | 7.0 | 8.0 | 0.00 | 0.00 | 0.00 | 74 | 1012.5 |
| 20260506023437 | 56 | 185 | 8.0 | 8.0 | 0.00 | 0.00 | 0.00 | 73 | 1012.6 |
| 20260506022938 | 57 | 185 | 7.0 | 8.0 | 0.00 | 0.00 | 0.00 | 73 | 1012.8 |
| 20260506022439 | 57 | 184 | 7.0 | 8.0 | 0.00 | 0.00 | 0.00 | 72 | 1012.7 |
| 20260506021938 | 57 | 184 | 7.0 | 8.0 | 0.00 | 0.00 | 0.00 | 72 | 1012.5 |
| 20260506021437 | 57 | 184 | 7.0 | 8.0 | 0.00 | 0.00 | 0.00 | 72 | 1012.3 |
| 20260506020938 | 58 | 182 | 7.0 | 8.0 | 0.00 | 0.00 | 0.00 | 72 | 1012.5 |
| 20260506020433 | 58 | 183 | 8.0 | 8.0 | 0.00 | 0.00 | 0.00 | 72 | 1012.4 |
| 20260506015935 | 58 | 184 | 7.0 | 8.0 | 0.00 | 0.00 | 0.00 | 72 | 1012.5 |
| 20260506015433 | 58 | 184 | 7.0 | 8.0 | 0.00 | 0.00 | 0.00 | 71 | 1012.4 |
| 20260506014934 | 58 | 182 | 7.0 | 8.0 | 0.00 | 0.00 | 0.00 | 71 | 1012.3 |
| 20260506014435 | 58 | 182 | 7.0 | 8.0 | 0.00 | 0.00 | 0.00 | 71 | 1012.3 |
| 20260506013935 | 58 | 184 | 7.0 | 8.0 | 0.00 | 0.00 | 0.00 | 70 | 1012.2 |
| 20260506013433 | 58 | 184 | 7.0 | 8.0 | 0.00 | 0.00 | 0.00 | 70 | 1012.1 |
| 20260506012934 | 58 | 184 | 7.0 | 8.0 | 0.00 | 0.00 | 0.00 | 70 | 1012.1 |
| 20260506012434 | 58 | 185 | 7.0 | 8.0 | 0.00 | 0.00 | 0.00 | 69 | 1012.1 |
| 20260506011935 | 59 | 185 | 7.0 | 8.0 | 0.00 | 0.00 | 0.00 | 69 | 1012.2 |
| 20260506011433 | 59 | 186 | 8.0 | 8.0 | 0.00 | 0.00 | 0.00 | 68 | 1012.0 |
| 20260506010934 | 59 | 183 | 7.0 | 8.0 | 0.00 | 0.00 | 0.00 | 69 | 1012.1 |
| 20260506010435 | 59 | 183 | 7.0 | 8.0 | 0.00 | 0.00 | 0.00 | 68 | 1012.0 |
| 20260506005935 | 59 | 184 | 7.0 | 8.0 | 0.00 | 0.00 | 0.00 | 68 | 1012.1 |
| 20260506005434 | 59 | 185 | 7.0 | 8.0 | 0.00 | 0.00 | 0.00 | 68 | 1012.2 |
| 20260506004937 | 59 | 186 | 7.0 | 8.0 | 0.00 | 0.00 | 0.00 | 68 | 1012.0 |
| 20260506004433 | 59 | 184 | 7.0 | 8.0 | 0.00 | 0.00 | 0.00 | 67 | 1011.8 |
| 20260506003935 | 60 | 184 | 7.0 | 8.0 | 0.00 | 0.00 | 0.00 | 67 | 1012.0 |
| 20260506003433 | 60 | 185 | 7.0 | 8.0 | 0.00 | 0.00 | 0.00 | 67 | 1011.9 |
| 20260506002934 | 60 | 184 | 7.0 | 8.0 | 0.00 | 0.00 | 0.00 | 67 | 1012.0 |
| 20260506002435 | 60 | 185 | 8.0 | 8.0 | 0.00 | 0.00 | 0.00 | 67 | 1012.0 |
| 20260506001935 | 60 | 185 | 8.0 | 9.0 | 0.00 | 0.00 | 0.00 | 67 | 1012.0 |
| 20260506001433 | 60 | 184 | 8.0 | 9.0 | 0.00 | 0.00 | 0.00 | 66 | 1012.1 |
| 20260506000934 | 60 | 183 | 6.0 | 9.0 | 0.00 | 0.00 | 0.00 | 66 | 1012.0 |
| 20260506000434 | 60 | 184 | 8.0 | 8.0 | 0.00 | 0.00 | 0.00 | 66 | 1012.0 |
| 20260505235936 | 60 | 184 | 7.0 | 9.0 | 0.00 | 0.00 | 0.00 | 66 | 1011.8 |
| 20260505235433 | 60 | 185 | 8.0 | 9.0 | 0.00 | 0.00 | 0.00 | 66 | 1012.0 |
| 20260505234934 | 60 | 183 | 7.0 | 8.0 | 0.00 | 0.00 | 0.00 | 66 | 1011.9 |
| 20260505234435 | 60 | 184 | 7.0 | 8.0 | 0.00 | 0.00 | 0.00 | 65 | 1011.8 |
| 20260505233934 | 60 | 183 | 7.0 | 8.0 | 0.00 | 0.00 | 0.00 | 65 | 1012.0 |
| 20260505233433 | 60 | 183 | 7.0 | 8.0 | 0.00 | 0.00 | 0.00 | 65 | 1012.2 |
| 20260505232934 | 61 | 184 | 8.0 | 8.0 | 0.00 | 0.00 | 0.00 | 65 | 1012.0 |
| 20260505232433 | 61 | 183 | 7.0 | 8.0 | 0.00 | 0.00 | 0.00 | 64 | 1012.0 |
| 20260505231935 | 61 | 185 | 7.0 | 8.0 | 0.00 | 0.00 | 0.00 | 64 | 1011.9 |
| 20260505231433 | 61 | 184 | 8.0 | 8.0 | 0.00 | 0.00 | 0.00 | 64 | 1011.9 |
| 20260505230935 | 62 | 183 | 8.0 | 8.0 | 0.00 | 0.00 | 0.00 | 63 | 1012.1 |
| 20260505230434 | 62 | 184 | 7.0 | 8.0 | 0.00 | 0.00 | 0.00 | 63 | 1012.1 |
| 20260505225934 | 62 | 184 | 7.0 | 8.0 | 0.00 | 0.00 | 0.00 | 63 | 1011.8 |
| 20260505225434 | 62 | 184 | 7.0 | 8.0 | 0.00 | 0.00 | 0.00 | 62 | 1012.0 |
| 20260505224934 | 63 | 184 | 7.0 | 8.0 | 0.00 | 0.00 | 0.00 | 62 | 1012.1 |
| 20260505224434 | 63 | 186 | 8.0 | 8.0 | 0.00 | 0.00 | 0.00 | 62 | 1011.9 |
| 20260505223941 | 63 | 184 | 7.0 | 8.0 | 0.00 | 0.00 | 0.00 | 60 | 1012.0 |
| 20260505223433 | 64 | 184 | 7.0 | 8.0 | 0.00 | 0.00 | 0.00 | 60 | 1012.0 |
| 20260505222934 | 64 | 186 | 7.0 | 8.0 | 0.00 | 0.00 | 0.00 | 60 | 1012.0 |
| 20260505222435 | 64 | 186 | 7.0 | 8.0 | 0.00 | 0.00 | 0.00 | 59 | 1012.2 |
| 20260505221935 | 64 | 184 | 8.0 | 8.0 | 0.00 | 0.00 | 0.00 | 59 | 1012.3 |
| 20260505221433 | 65 | 187 | 7.0 | 9.0 | 0.00 | 0.00 | 0.00 | 58 | 1012.1 |
| 20260505220943 | 65 | 183 | 8.0 | 9.0 | 0.00 | 0.00 | 0.00 | 58 | 1012.3 |
| 20260505220434 | 65 | 185 | 7.0 | 8.0 | 0.00 | 0.00 | 0.00 | 57 | 1012.0 |
| 20260505215936 | 65 | 183 | 7.0 | 8.0 | 0.00 | 0.00 | 0.00 | 57 | 1012.1 |
| 20260505215433 | 65 | 183 | 8.0 | 8.0 | 0.00 | 0.00 | 0.00 | 56 | 1012.2 |
| 20260505214935 | 65 | 184 | 8.0 | 8.0 | 0.00 | 0.00 | 0.00 | 56 | 1012.1 |
| 20260505214434 | 66 | 182 | 7.0 | 8.0 | 0.00 | 0.00 | 0.00 | 55 | 1012.2 |
| 20260505213934 | 66 | 182 | 7.0 | 8.0 | 0.00 | 0.00 | 0.00 | 55 | 1012.1 |
| 20260505213433 | 66 | 183 | 7.0 | 8.0 | 0.00 | 0.00 | 0.00 | 54 | 1012.0 |
| 20260505212934 | 67 | 183 | 8.0 | 8.0 | 0.00 | 0.00 | 0.00 | 53 | 1012.0 |
| 20260505212434 | 67 | 183 | 7.0 | 9.0 | 0.00 | 0.00 | 0.00 | 53 | 1011.9 |
| 20260505211936 | 67 | 183 | 7.0 | 9.0 | 0.00 | 0.00 | 0.00 | 52 | 1011.8 |
| 20260505211433 | 68 | 183 | 6.0 | 8.0 | 0.00 | 0.00 | 0.00 | 52 | 1011.8 |
| 20260505210935 | 68 | 182 | 7.0 | 10.0 | 0.00 | 0.00 | 0.00 | 51 | 1011.7 |
| 20260505210435 | 68 | 183 | 7.0 | 10.0 | 0.00 | 0.00 | 0.00 | 50 | 1011.5 |
| 20260505205934 | 68 | 182 | 6.0 | 9.0 | 0.00 | 0.00 | 0.00 | 50 | 1011.7 |
| 20260505205433 | 69 | 182 | 7.0 | 9.0 | 0.00 | 0.00 | 0.00 | 49 | 1011.4 |
| 20260505204935 | 69 | 183 | 6.0 | 9.0 | 0.00 | 0.00 | 0.00 | 48 | 1011.5 |
| 20260505204433 | 69 | 184 | 6.0 | 9.0 | 0.00 | 0.00 | 0.00 | 48 | 1011.3 |
| 20260505203936 | 68 | 180 | 6.0 | 9.0 | 0.00 | 0.00 | 0.00 | 47 | 1011.4 |
| 20260505203433 | 68 | 183 | 7.0 | 9.0 | 0.00 | 0.00 | 0.00 | 47 | 1011.4 |
| 20260505202934 | 68 | 185 | 7.0 | 9.0 | 0.00 | 0.00 | 0.00 | 47 | 1011.3 |
| 20260505202435 | 67 | 183 | 6.0 | 9.0 | 0.00 | 0.00 | 0.00 | 48 | 1011.4 |
| 20260505201934 | 64 | 184 | 7.0 | 11.0 | 0.00 | 0.00 | 0.00 | 57 | 1011.4 |
| 20260505201434 | 64 | 186 | 8.0 | 11.0 | 0.00 | 0.00 | 0.00 | 60 | 1011.0 |
| 20260505200935 | 64 | 183 | 7.0 | 8.0 | 0.00 | 0.00 | 0.00 | 61 | 1010.8 |
| 20260505200433 | 64 | 185 | 8.0 | 8.0 | 0.00 | 0.00 | 0.00 | 61 | 1010.7 |
| 20260505195936 | 64 | 185 | 8.0 | 9.0 | 0.00 | 0.00 | 0.00 | 61 | 1010.8 |
| 20260505195434 | 64 | 185 | 7.0 | 9.0 | 0.00 | 0.00 | 0.00 | 60 | 1010.8 |
| 20260505194935 | 64 | 185 | 8.0 | 9.0 | 0.00 | 0.00 | 0.00 | 60 | 1010.7 |
| 20260505194434 | 64 | 186 | 7.0 | 8.0 | 0.00 | 0.00 | 0.00 | 60 | 1010.6 |
| 20260505193935 | 65 | 184 | 7.0 | 9.0 | 0.00 | 0.00 | 0.00 | 58 | 1010.7 |
| 20260505193433 | 65 | 184 | 7.0 | 9.0 | 0.00 | 0.00 | 0.00 | 59 | 1010.6 |
| 20260505192935 | 65 | 186 | 8.0 | 8.0 | 0.00 | 0.00 | 0.00 | 59 | 1010.6 |
| 20260505192434 | 65 | 182 | 7.0 | 8.0 | 0.00 | 0.00 | 0.00 | 57 | 1010.5 |
| 20260505191935 | 66 | 183 | 7.0 | 8.0 | 0.00 | 0.00 | 0.00 | 56 | 1010.6 |
| 20260505191433 | 66 | 185 | 7.0 | 8.0 | 0.00 | 0.00 | 0.00 | 54 | 1010.5 |
| 20260505190934 | 66 | 183 | 7.0 | 8.0 | 0.00 | 0.00 | 0.00 | 53 | 1010.4 |
| 20260505190433 | 67 | 183 | 7.0 | 8.0 | 0.00 | 0.00 | 0.00 | 53 | 1010.3 |
| 20260505185936 | 67 | 183 | 7.0 | 8.0 | 0.00 | 0.00 | 0.00 | 54 | 1010.5 |
| 20260505185434 | 67 | 184 | 7.0 | 7.0 | 0.00 | 0.00 | 0.00 | 52 | 1010.5 |
| 20260505184934 | 67 | 238 | 0.0 | 1.0 | 0.00 | 0.00 | 0.00 | 50 | 1010.3 |
| 20260505184435 | 68 | 233 | 0.0 | 1.0 | 0.00 | 0.00 | 0.00 | 50 | 1010.3 |
| 20260505183935 | 69 | 241 | 0.0 | 1.0 | 0.00 | 0.00 | 0.00 | 50 | 1010.2 |
| 20260505183434 | 69 | 224 | 0.0 | 1.0 | 0.00 | 0.00 | 0.00 | 49 | 1010.3 |
| 20260505182936 | 69 | 205 | 0.0 | 1.0 | 0.00 | 0.00 | 0.00 | 49 | 1010.2 |
| 20260505182437 | 70 | 255 | 0.0 | 1.0 | 0.00 | 0.00 | 0.00 | 48 | 1010.2 |
| 20260505181939 | 70 | 224 | 0.0 | 1.0 | 0.00 | 0.00 | 0.00 | 48 | 1009.8 |
| 20260505181437 | 71 | 246 | 0.0 | 1.0 | 0.00 | 0.00 | 0.00 | 46 | 1010.1 |
| 20260505180938 | 71 | 221 | 0.0 | 1.0 | 0.00 | 0.00 | 0.00 | 46 | 1010.2 |
| 20260505180438 | 71 | 246 | 0.0 | 1.0 | 0.00 | 0.00 | 0.00 | 45 | 1010.0 |
| 20260505175938 | 72 | 224 | 0.0 | 1.0 | 0.00 | 0.00 | 0.00 | 45 | 1009.8 |
| 20260505175438 | 72 | 246 | 0.0 | 1.0 | 0.00 | 0.00 | 0.00 | 45 | 1009.8 |
| 20260505174938 | 73 | 230 | 0.0 | 1.0 | 0.00 | 0.00 | 0.00 | 42 | 1009.8 |
| 20260505174440 | 73 | 230 | 0.0 | 1.0 | 0.00 | 0.00 | 0.00 | 42 | 1009.7 |
| 20260505173940 | 73 | 224 | 0.0 | 1.0 | 0.00 | 0.00 | 0.00 | 40 | 1009.7 |
| 20260505173441 | 74 | 224 | 0.0 | 1.0 | 0.00 | 0.00 | 0.00 | 40 | 1009.9 |
| 20260505172937 | 74 | 225 | 0.0 | 1.0 | 0.00 | 0.00 | 0.00 | 39 | 1009.6 |
| 20260505172440 | 75 | 224 | 0.0 | 1.0 | 0.00 | 0.00 | 0.00 | 38 | 1009.7 |
| 20260505171938 | 75 | 242 | 0.0 | 0.0 | 0.00 | 0.00 | 0.00 | 37 | 1009.6 |
| 20260505171438 | 75 | 309 | 0.0 | 0.0 | 0.00 | 0.00 | 0.00 | 37 | 1009.7 |
| 20260505170937 | 76 | 315 | 0.0 | 0.0 | 0.00 | 0.00 | 0.00 | 37 | 1009.9 |
| 20260505170437 | 76 | 315 | 0.0 | 0.0 | 0.00 | 0.00 | 0.00 | 37 | 1009.8 |
| 20260505165941 | 77 | 315 | 0.0 | 0.0 | 0.00 | 0.00 | 0.00 | 36 | 1009.7 |
| 20260505165439 | 77 | 230 | 0.0 | 0.0 | 0.00 | 0.00 | 0.00 | 35 | 1009.8 |
| 20260505164937 | 78 | 224 | 0.0 | 0.0 | 0.00 | 0.00 | 0.00 | 34 | 1009.8 |
| 20260505164439 | 78 | 224 | 0.0 | 0.0 | 0.00 | 0.00 | 0.00 | 33 | 1009.8 |
| 20260505163939 | 79 | 242 | 0.0 | 1.0 | 0.00 | 0.00 | 0.00 | 33 | 1009.8 |
| 20260505163439 | 79 | 224 | 0.0 | 1.0 | 0.00 | 0.00 | 0.00 | 32 | 1009.8 |
| 20260505162938 | 79 | 332 | 0.0 | 2.0 | 0.00 | 0.00 | 0.00 | 32 | 1009.9 |
| 20260505162440 | 79 | 315 | 0.0 | 2.0 | 0.00 | 0.00 | 0.00 | 33 | 1010.0 |
| 20260505161939 | 79 | 322 | 0.0 | 2.0 | 0.00 | 0.00 | 0.00 | 32 | 1009.9 |
| 20260505161438 | 80 | 322 | 0.0 | 2.0 | 0.00 | 0.00 | 0.00 | 32 | 1009.8 |
| 20260505160937 | 80 | 205 | 0.0 | 2.0 | 0.00 | 0.00 | 0.00 | 32 | 1009.8 |
| 20260505160438 | 80 | 220 | 0.0 | 2.0 | 0.00 | 0.00 | 0.00 | 32 | 1009.8 |
| 20260505152934 | 80 | 315 | 0.0 | 1.0 | 0.00 | 0.00 | 0.00 | 31 | 1010.1 |
| 20260505152436 | 80 | 230 | 0.0 | 1.0 | 0.00 | 0.00 | 0.00 | 30 | 1010.3 |
| 20260505151934 | 81 | 216 | 0.0 | 2.0 | 0.00 | 0.00 | 0.00 | 33 | 1010.2 |
| 20260505151434 | 81 | 315 | 0.0 | 2.0 | 0.00 | 0.00 | 0.00 | 30 | 1010.3 |
| 20260505150934 | 81 | 212 | 0.0 | 2.0 | 0.00 | 0.00 | 0.00 | 32 | 1010.2 |
| 20260505150435 | 81 | 209 | 0.0 | 2.0 | 0.00 | 0.00 | 0.00 | 31 | 1010.3 |
| 20260505140434 | 82 | 179 | 1.0 | 1.0 | 0.00 | 0.00 | 0.00 | 31 | 1010.9 |
| 20260505124934 | 85 | 224 | 0.0 | 2.0 | 0.00 | 0.00 | 0.00 | 24 | 1012.0 |
| 20260505124436 | 86 | 190 | 1.0 | 2.0 | 0.00 | 0.00 | 0.00 | 26 | 1011.9 |
| 20260505123934 | 87 | 183 | 0.0 | 2.0 | 0.00 | 0.00 | 0.00 | 23 | 1012.1 |
| 20260505123435 | 86 | 158 | 0.0 | 2.0 | 0.00 | 0.00 | 0.00 | 23 | 1012.1 |
| 20260505122935 | 86 | 38 | 0.0 | 2.0 | 0.00 | 0.00 | 0.00 | 24 | 1012.2 |
| 20260505122435 | 85 | 130 | 0.0 | 2.0 | 0.00 | 0.00 | 0.00 | 24 | 1012.2 |
| 20260505121935 | 85 | 341 | 0.0 | 3.0 | 0.00 | 0.00 | 0.00 | 26 | 1012.2 |
| 20260505121434 | 85 | 212 | 0.0 | 4.0 | 0.00 | 0.00 | 0.00 | 26 | 1012.2 |
| 20260505120935 | 83 | 242 | 0.0 | 4.0 | 0.00 | 0.00 | 0.00 | 27 | 1012.4 |
| 20260505120434 | 83 | 212 | 2.0 | 3.0 | 0.00 | 0.00 | 0.00 | 27 | 1012.6 |
| 20260505115936 | 84 | 189 | 0.0 | 2.0 | 0.00 | 0.00 | 0.00 | 29 | 1012.4 |
| 20260505115434 | 83 | 174 | 0.0 | 2.0 | 0.00 | 0.00 | 0.00 | 32 | 1012.6 |
| 20260505114935 | 83 | 260 | 0.0 | 2.0 | 0.00 | 0.00 | 0.00 | 30 | 1012.4 |
| 20260505114435 | 83 | 186 | 0.0 | 3.0 | 0.00 | 0.00 | 0.00 | 32 | 1012.6 |
| 20260505113935 | 82 | 210 | 1.0 | 3.0 | 0.00 | 0.00 | 0.00 | 32 | 1012.5 |
| 20260505113433 | 82 | 19 | 0.0 | 2.0 | 0.00 | 0.00 | 0.00 | 31 | 1012.6 |
| 20260505112935 | 82 | 44 | 1.0 | 2.0 | 0.00 | 0.00 | 0.00 | 32 | 1012.6 |
| 20260505112434 | 81 | 343 | 0.0 | 2.0 | 0.00 | 0.00 | 0.00 | 32 | 1012.6 |
| 20260505111936 | 80 | 333 | 0.0 | 2.0 | 0.00 | 0.00 | 0.00 | 31 | 1012.6 |
| 20260505111433 | 80 | 243 | 0.0 | 2.0 | 0.00 | 0.00 | 0.00 | 34 | 1012.7 |
| 20260505110935 | 80 | 297 | 0.0 | 2.0 | 0.00 | 0.00 | 0.00 | 34 | 1012.8 |
| 20260505110435 | 79 | 333 | 0.0 | 2.0 | 0.00 | 0.00 | 0.00 | 34 | 1012.8 |
| 20260505101935 | 78 | 359 | 2.0 | 2.0 | 0.00 | 0.00 | 0.00 | 33 | 1013.2 |
| 20260505101434 | 78 | 196 | 0.0 | 2.0 | 0.00 | 0.00 | 0.00 | 35 | 1013.3 |
| 20260505100934 | 78 | 197 | 1.0 | 3.0 | 0.00 | 0.00 | 0.00 | 35 | 1013.3 |
| 20260505100433 | 78 | 197 | 0.0 | 3.0 | 0.00 | 0.00 | 0.00 | 37 | 1013.5 |
| 20260505095935 | 78 | 6 | 0.0 | 2.0 | 0.00 | 0.00 | 0.00 | 43 | 1013.5 |
| 20260505095434 | 78 | 218 | 0.0 | 2.0 | 0.00 | 0.00 | 0.00 | 44 | 1013.7 |
| 20260505094935 | 77 | 343 | 0.0 | 2.0 | 0.00 | 0.00 | 0.00 | 42 | 1013.4 |
| 20260505094436 | 77 | 193 | 0.0 | 3.0 | 0.00 | 0.00 | 0.00 | 43 | 1013.7 |
| 20260505093934 | 77 | 127 | 0.0 | 3.0 | 0.00 | 0.00 | 0.00 | 42 | 1013.5 |
| 20260505093434 | 77 | 205 | 1.0 | 2.0 | 0.00 | 0.00 | 0.00 | 44 | 1013.8 |
| 20260505092935 | 76 | 224 | 0.0 | 3.0 | 0.00 | 0.00 | 0.00 | 42 | 1013.6 |
| 20260505092436 | 76 | 200 | 0.0 | 3.0 | 0.00 | 0.00 | 0.00 | 44 | 1013.7 |
| 20260505091936 | 76 | 218 | 3.0 | 3.0 | 0.00 | 0.00 | 0.00 | 44 | 1013.7 |
| 20260505091433 | 76 | 315 | 0.0 | 2.0 | 0.00 | 0.00 | 0.00 | 45 | 1014.0 |
| 20260505090935 | 76 | 200 | 1.0 | 2.0 | 0.00 | 0.00 | 0.00 | 46 | 1014.0 |
| 20260505090435 | 75 | 229 | 0.0 | 2.0 | 0.00 | 0.00 | 0.00 | 45 | 1013.9 |
| 20260505085935 | 75 | 304 | 0.0 | 2.0 | 0.00 | 0.00 | 0.00 | 45 | 1014.2 |
| 20260505085433 | 74 | 242 | 0.0 | 2.0 | 0.00 | 0.00 | 0.00 | 45 | 1014.0 |
| 20260505084935 | 74 | 255 | 0.0 | 2.0 | 0.00 | 0.00 | 0.00 | 45 | 1014.1 |
| 20260505084434 | 74 | 256 | 0.0 | 2.0 | 0.00 | 0.00 | 0.00 | 47 | 1014.1 |